sensor_id;sensor_type;location;lat;lon;timestamp;pressure;altitude;pressure_sealevel;temperature;humidity
61742;BME280;47650;49.848;9.620;2023-06-14T00:01:23;99328.16;;;14.46;58.63
61742;BME280;47650;49.848;9.620;2023-06-14T00:03:48;99341.25;;;14.56;58.78
61742;BME280;47650;49.848;9.620;2023-06-14T00:06:16;99335.28;;;14.54;58.74
61742;BME280;47650;49.848;9.620;2023-06-14T00:08:43;99344.28;;;14.53;59.14
61742;BME280;47650;49.848;9.620;2023-06-14T00:11:08;99334.44;;;14.53;58.56
61742;BME280;47650;49.848;9.620;2023-06-14T00:13:33;99340.44;;;14.55;58.59
61742;BME280;47650;49.848;9.620;2023-06-14T00:16:00;99339.41;;;14.56;58.33
61742;BME280;47650;49.848;9.620;2023-06-14T00:18:25;99333.25;;;14.56;58.37
61742;BME280;47650;49.848;9.620;2023-06-14T00:20:54;99335.28;;;14.54;58.30
61742;BME280;47650;49.848;9.620;2023-06-14T00:23:20;99323.84;;;14.45;58.74
61742;BME280;47650;49.848;9.620;2023-06-14T00:25:46;99245.03;;;13.88;58.78
61742;BME280;47650;49.848;9.620;2023-06-14T00:28:12;99341.06;;;14.34;59.19
61742;BME280;47650;49.848;9.620;2023-06-14T00:30:38;99341.78;;;14.28;58.82
61742;BME280;47650;49.848;9.620;2023-06-14T00:33:04;99343.66;;;14.19;59.28
61742;BME280;47650;49.848;9.620;2023-06-14T00:35:29;99322.56;;;14.01;59.10
61742;BME280;47650;49.848;9.620;2023-06-14T00:37:55;99333.53;;;14.06;59.25
61742;BME280;47650;49.848;9.620;2023-06-14T00:40:21;99322.41;;;14.03;59.19
61742;BME280;47650;49.848;9.620;2023-06-14T00:42:46;99335.38;;;14.06;59.19
61742;BME280;47650;49.848;9.620;2023-06-14T00:45:13;99336.63;;;13.95;59.18
61742;BME280;47650;49.848;9.620;2023-06-14T00:47:40;99340.28;;;13.94;59.54
61742;BME280;47650;49.848;9.620;2023-06-14T00:50:07;99340.63;;;13.91;60.22
61742;BME280;47650;49.848;9.620;2023-06-14T00:52:34;99339.31;;;13.87;60.19
61742;BME280;47650;49.848;9.620;2023-06-14T00:55:03;99339.31;;;13.87;60.46
61742;BME280;47650;49.848;9.620;2023-06-14T00:57:29;99317.41;;;13.68;60.26
61742;BME280;47650;49.848;9.620;2023-06-14T00:59:54;99305.13;;;13.59;60.25
61742;BME280;47650;49.848;9.620;2023-06-14T01:02:21;99324.88;;;13.73;59.74
61742;BME280;47650;49.848;9.620;2023-06-14T01:04:49;99337.03;;;13.76;59.74
61742;BME280;47650;49.848;9.620;2023-06-14T01:12:56;99333.53;;;13.67;60.18
61742;BME280;47650;49.848;9.620;2023-06-14T01:15:23;99331.09;;;13.65;60.68
61742;BME280;47650;49.848;9.620;2023-06-14T01:17:50;99261.94;;;13.24;60.52
61742;BME280;47650;49.848;9.620;2023-06-14T01:20:18;99332.06;;;13.64;60.29
61742;BME280;47650;49.848;9.620;2023-06-14T01:22:52;99334.09;;;13.62;61.78
61742;BME280;47650;49.848;9.620;2023-06-14T01:25:19;99322.78;;;13.60;61.08
61742;BME280;47650;49.848;9.620;2023-06-14T01:27:48;99328.09;;;13.60;60.77
61742;BME280;47650;49.848;9.620;2023-06-14T01:30:16;99335.41;;;13.58;60.58
61742;BME280;47650;49.848;9.620;2023-06-14T01:32:43;99336.75;;;13.54;60.71
61742;BME280;47650;49.848;9.620;2023-06-14T01:35:11;99330.16;;;13.42;60.99
61742;BME280;47650;49.848;9.620;2023-06-14T01:37:37;99336.78;;;13.46;60.96
61742;BME280;47650;49.848;9.620;2023-06-14T01:40:04;99333.78;;;13.41;60.69
61742;BME280;47650;49.848;9.620;2023-06-14T01:42:35;99341.94;;;13.39;61.21
61742;BME280;47650;49.848;9.620;2023-06-14T01:45:02;99334.16;;;13.38;61.52
61742;BME280;47650;49.848;9.620;2023-06-14T01:47:29;99330.66;;;13.37;61.33
61742;BME280;47650;49.848;9.620;2023-06-14T01:49:55;99334.50;;;13.34;61.55
61742;BME280;47650;49.848;9.620;2023-06-14T01:52:21;99108.34;;;11.88;61.20
61742;BME280;47650;49.848;9.620;2023-06-14T01:54:47;99334.31;;;13.28;61.65
61742;BME280;47650;49.848;9.620;2023-06-14T01:57:16;99319.53;;;13.17;61.60
61742;BME280;47650;49.848;9.620;2023-06-14T01:59:41;99333.50;;;13.19;61.99
61742;BME280;47650;49.848;9.620;2023-06-14T02:02:07;99291.94;;;12.85;61.69
61742;BME280;47650;49.848;9.620;2023-06-14T02:04:32;99324.38;;;13.05;62.26
61742;BME280;47650;49.848;9.620;2023-06-14T02:06:58;99329.19;;;13.10;62.12
61742;BME280;47650;49.848;9.620;2023-06-14T02:09:23;99331.31;;;13.06;62.01
61742;BME280;47650;49.848;9.620;2023-06-14T02:11:49;99337.84;;;13.04;62.16
61742;BME280;47650;49.848;9.620;2023-06-14T02:14:14;99341.00;;;12.99;61.88
61742;BME280;47650;49.848;9.620;2023-06-14T02:16:41;99347.50;;;12.96;61.74
61742;BME280;47650;49.848;9.620;2023-06-14T02:19:19;99344.16;;;12.94;61.71
61742;BME280;47650;49.848;9.620;2023-06-14T02:21:45;99346.16;;;12.92;61.86
61742;BME280;47650;49.848;9.620;2023-06-14T02:24:13;99354.47;;;12.89;62.12
61742;BME280;47650;49.848;9.620;2023-06-14T02:26:38;99309.25;;;12.56;62.16
61742;BME280;47650;49.848;9.620;2023-06-14T02:29:05;99354.97;;;12.85;62.60
61742;BME280;47650;49.848;9.620;2023-06-14T02:31:32;99346.31;;;12.83;62.89
61742;BME280;47650;49.848;9.620;2023-06-14T02:33:59;99287.63;;;12.43;63.04
61742;BME280;47650;49.848;9.620;2023-06-14T02:36:24;99356.97;;;12.83;63.26
61742;BME280;47650;49.848;9.620;2023-06-14T02:38:51;99359.47;;;12.84;62.84
61742;BME280;47650;49.848;9.620;2023-06-14T02:41:18;99355.97;;;12.84;62.93
61742;BME280;47650;49.848;9.620;2023-06-14T02:43:43;99363.13;;;12.83;63.19
61742;BME280;47650;49.848;9.620;2023-06-14T02:46:09;99301.59;;;12.45;63.11
61742;BME280;47650;49.848;9.620;2023-06-14T02:48:35;99331.19;;;12.58;63.11
61742;BME280;47650;49.848;9.620;2023-06-14T02:51:00;99355.13;;;12.75;63.38
61742;BME280;47650;49.848;9.620;2023-06-14T02:53:26;99334.50;;;12.60;62.99
61742;BME280;47650;49.848;9.620;2023-06-14T02:55:51;99377.75;;;12.71;63.42
61742;BME280;47650;49.848;9.620;2023-06-14T02:58:17;99356.78;;;12.68;63.39
61742;BME280;47650;49.848;9.620;2023-06-14T03:00:44;99364.25;;;12.64;63.40
61742;BME280;47650;49.848;9.620;2023-06-14T03:03:09;99354.47;;;12.56;63.21
61742;BME280;47650;49.848;9.620;2023-06-14T03:05:41;99373.75;;;12.58;63.36
61742;BME280;47650;49.848;9.620;2023-06-14T03:08:13;99371.72;;;12.52;63.40
61742;BME280;47650;49.848;9.620;2023-06-14T03:10:45;99316.34;;;12.15;63.88
61742;BME280;47650;49.848;9.620;2023-06-14T03:13:12;99311.97;;;12.06;64.05
61742;BME280;47650;49.848;9.620;2023-06-14T03:15:38;99376.03;;;12.45;64.15
61742;BME280;47650;49.848;9.620;2023-06-14T03:18:10;99377.06;;;12.44;64.37
61742;BME280;47650;49.848;9.620;2023-06-14T03:20:37;99374.41;;;12.44;64.25
61742;BME280;47650;49.848;9.620;2023-06-14T03:23:03;99355.88;;;12.26;63.83
61742;BME280;47650;49.848;9.620;2023-06-14T03:25:30;99370.53;;;12.38;63.98
61742;BME280;47650;49.848;9.620;2023-06-14T03:27:56;99370.34;;;12.32;64.92
61742;BME280;47650;49.848;9.620;2023-06-14T03:30:21;99356.72;;;12.27;64.44
61742;BME280;47650;49.848;9.620;2023-06-14T03:32:47;99382.19;;;12.46;64.00
61742;BME280;47650;49.848;9.620;2023-06-14T03:35:13;99339.44;;;12.22;64.15
61742;BME280;47650;49.848;9.620;2023-06-14T03:37:45;99386.03;;;12.51;63.97
61742;BME280;47650;49.848;9.620;2023-06-14T03:40:15;99389.34;;;12.53;64.02
61742;BME280;47650;49.848;9.620;2023-06-14T03:42:41;99356.75;;;12.35;64.01
61742;BME280;47650;49.848;9.620;2023-06-14T03:45:06;99391.34;;;12.59;64.14
61742;BME280;47650;49.848;9.620;2023-06-14T03:47:34;99365.22;;;12.38;64.05
61742;BME280;47650;49.848;9.620;2023-06-14T03:50:00;99385.03;;;12.52;63.59
61742;BME280;47650;49.848;9.620;2023-06-14T03:52:26;99382.03;;;12.55;63.32
61742;BME280;47650;49.848;9.620;2023-06-14T03:54:51;99406.03;;;12.72;63.04
61742;BME280;47650;49.848;9.620;2023-06-14T03:57:19;99407.66;;;12.73;63.01
61742;BME280;47650;49.848;9.620;2023-06-14T03:59:45;99411.69;;;12.77;63.09
61742;BME280;47650;49.848;9.620;2023-06-14T04:02:10;99385.72;;;12.63;63.44
61742;BME280;47650;49.848;9.620;2023-06-14T04:04:35;99412.03;;;12.82;63.37
61742;BME280;47650;49.848;9.620;2023-06-14T04:07:01;99412.66;;;12.92;63.02
61742;BME280;47650;49.848;9.620;2023-06-14T04:09:31;99341.50;;;12.53;63.00
61742;BME280;47650;49.848;9.620;2023-06-14T04:11:57;99379.91;;;12.84;62.63
61742;BME280;47650;49.848;9.620;2023-06-14T04:14:22;99375.75;;;12.81;62.49
61742;BME280;47650;49.848;9.620;2023-06-14T04:16:49;99421.00;;;13.14;62.86
61742;BME280;47650;49.848;9.620;2023-06-14T04:19:18;99415.00;;;13.20;62.85
61742;BME280;47650;49.848;9.620;2023-06-14T04:21:44;99405.69;;;13.16;62.69
61742;BME280;47650;49.848;9.620;2023-06-14T04:24:09;99404.72;;;13.17;63.06
61742;BME280;47650;49.848;9.620;2023-06-14T04:26:41;99432.00;;;13.44;62.71
61742;BME280;47650;49.848;9.620;2023-06-14T04:29:12;99434.34;;;13.47;63.65
61742;BME280;47650;49.848;9.620;2023-06-14T04:31:42;99413.34;;;13.44;63.12
61742;BME280;47650;49.848;9.620;2023-06-14T04:34:08;99426.50;;;13.62;63.14
61742;BME280;47650;49.848;9.620;2023-06-14T04:36:33;99443.63;;;13.76;63.50
61742;BME280;47650;49.848;9.620;2023-06-14T04:39:01;99365.44;;;13.35;63.17
61742;BME280;47650;49.848;9.620;2023-06-14T04:41:29;99443.88;;;13.97;62.86
61742;BME280;47650;49.848;9.620;2023-06-14T04:43:57;99441.19;;;14.05;62.17
61742;BME280;47650;49.848;9.620;2023-06-14T04:46:28;99411.56;;;14.00;62.28
61742;BME280;47650;49.848;9.620;2023-06-14T04:48:55;99443.13;;;14.20;62.14
61742;BME280;47650;49.848;9.620;2023-06-14T04:51:20;99444.41;;;14.32;62.15
61742;BME280;47650;49.848;9.620;2023-06-14T04:53:47;99456.41;;;14.36;61.94
61742;BME280;47650;49.848;9.620;2023-06-14T04:56:14;99453.00;;;14.51;61.79
61742;BME280;47650;49.848;9.620;2023-06-14T04:58:40;99435.63;;;14.63;61.16
61742;BME280;47650;49.848;9.620;2023-06-14T05:01:05;99453.00;;;14.82;60.86
61742;BME280;47650;49.848;9.620;2023-06-14T05:03:31;99439.44;;;14.92;60.52
61742;BME280;47650;49.848;9.620;2023-06-14T05:05:57;99431.75;;;14.97;60.71
61742;BME280;47650;49.848;9.620;2023-06-14T05:08:23;99444.41;;;15.18;60.74
61742;BME280;47650;49.848;9.620;2023-06-14T05:10:50;99456.81;;;15.34;60.05
61742;BME280;47650;49.848;9.620;2023-06-14T05:13:17;99451.09;;;15.37;60.36
61742;BME280;47650;49.848;9.620;2023-06-14T05:15:42;99447.09;;;15.56;58.86
61742;BME280;47650;49.848;9.620;2023-06-14T05:18:08;99446.94;;;15.72;58.03
61742;BME280;47650;49.848;9.620;2023-06-14T05:20:36;99447.78;;;15.73;57.02
61742;BME280;47650;49.848;9.620;2023-06-14T05:23:02;99452.03;;;15.82;57.25
61742;BME280;47650;49.848;9.620;2023-06-14T05:25:28;99406.66;;;15.74;57.14
61742;BME280;47650;49.848;9.620;2023-06-14T05:27:56;99451.59;;;16.23;55.70
61742;BME280;47650;49.848;9.620;2023-06-14T05:30:21;99451.19;;;16.26;56.27
61742;BME280;47650;49.848;9.620;2023-06-14T05:32:46;99440.47;;;16.41;54.30
61742;BME280;47650;49.848;9.620;2023-06-14T05:35:12;99455.59;;;16.49;55.39
61742;BME280;47650;49.848;9.620;2023-06-14T05:37:37;99466.53;;;16.84;53.81
61742;BME280;47650;49.848;9.620;2023-06-14T05:40:04;99466.13;;;16.87;53.36
61742;BME280;47650;49.848;9.620;2023-06-14T05:42:31;99459.78;;;16.88;52.34
61742;BME280;47650;49.848;9.620;2023-06-14T05:44:56;99461.50;;;16.96;52.30
61742;BME280;47650;49.848;9.620;2023-06-14T05:47:22;99460.53;;;17.25;52.51
61742;BME280;47650;49.848;9.620;2023-06-14T05:49:48;99463.22;;;17.25;52.25
61742;BME280;47650;49.848;9.620;2023-06-14T05:52:13;99466.38;;;17.57;50.80
61742;BME280;47650;49.848;9.620;2023-06-14T05:54:38;99463.28;;;17.53;50.46
61742;BME280;47650;49.848;9.620;2023-06-14T05:57:04;99432.94;;;17.53;49.54
61742;BME280;47650;49.848;9.620;2023-06-14T05:59:31;99456.63;;;17.77;49.60
61742;BME280;47650;49.848;9.620;2023-06-14T06:01:57;99453.50;;;18.02;49.46
61742;BME280;47650;49.848;9.620;2023-06-14T06:04:23;99418.88;;;18.07;48.97
61742;BME280;47650;49.848;9.620;2023-06-14T06:06:48;99459.25;;;18.34;48.25
61742;BME280;47650;49.848;9.620;2023-06-14T06:09:13;99452.88;;;18.41;47.27
61742;BME280;47650;49.848;9.620;2023-06-14T06:11:41;99460.78;;;18.56;47.85
61742;BME280;47650;49.848;9.620;2023-06-14T06:14:07;99455.06;;;18.73;47.02
61742;BME280;47650;49.848;9.620;2023-06-14T06:16:32;99456.91;;;18.66;47.47
61742;BME280;47650;49.848;9.620;2023-06-14T06:18:58;99453.88;;;18.82;47.11
61742;BME280;47650;49.848;9.620;2023-06-14T06:21:24;99460.09;;;18.89;46.50
61742;BME280;47650;49.848;9.620;2023-06-14T06:23:50;99445.16;;;18.80;46.04
61742;BME280;47650;49.848;9.620;2023-06-14T06:26:15;99461.00;;;19.37;44.81
61742;BME280;47650;49.848;9.620;2023-06-14T06:28:44;99411.72;;;18.89;44.85
61742;BME280;47650;49.848;9.620;2023-06-14T06:31:09;99411.91;;;18.81;45.21
61742;BME280;47650;49.848;9.620;2023-06-14T06:33:36;99458.06;;;19.45;44.42
61742;BME280;47650;49.848;9.620;2023-06-14T06:36:02;99471.97;;;19.48;44.86
61742;BME280;47650;49.848;9.620;2023-06-14T06:38:29;99463.88;;;19.28;44.24
61742;BME280;47650;49.848;9.620;2023-06-14T06:40:55;99475.81;;;18.92;45.09
61742;BME280;47650;49.848;9.620;2023-06-14T06:43:21;99455.00;;;19.28;43.50
61742;BME280;47650;49.848;9.620;2023-06-14T06:45:47;99463.47;;;19.58;43.65
61742;BME280;47650;49.848;9.620;2023-06-14T06:48:12;99477.97;;;19.57;44.34
61742;BME280;47650;49.848;9.620;2023-06-14T06:50:38;99473.00;;;19.61;43.52
61742;BME280;47650;49.848;9.620;2023-06-14T06:53:03;99476.72;;;19.86;43.65
61742;BME280;47650;49.848;9.620;2023-06-14T06:55:29;99462.22;;;19.81;43.79
61742;BME280;47650;49.848;9.620;2023-06-14T06:57:57;99476.66;;;20.06;42.73
61742;BME280;47650;49.848;9.620;2023-06-14T07:00:23;99450.19;;;20.03;42.88
61742;BME280;47650;49.848;9.620;2023-06-14T07:02:50;99427.25;;;19.81;43.32
61742;BME280;47650;49.848;9.620;2023-06-14T07:05:16;99480.75;;;20.22;42.46
61742;BME280;47650;49.848;9.620;2023-06-14T07:07:41;99479.53;;;20.25;42.40
61742;BME280;47650;49.848;9.620;2023-06-14T07:10:15;99462.56;;;20.18;42.07
61742;BME280;47650;49.848;9.620;2023-06-14T07:12:40;99455.53;;;20.10;42.00
61742;BME280;47650;49.848;9.620;2023-06-14T07:15:08;99388.44;;;20.15;41.52
61742;BME280;47650;49.848;9.620;2023-06-14T07:17:34;99483.53;;;20.61;42.10
61742;BME280;47650;49.848;9.620;2023-06-14T07:20:01;99473.19;;;20.71;41.28
61742;BME280;47650;49.848;9.620;2023-06-14T07:22:43;99475.16;;;20.82;40.09
61742;BME280;47650;49.848;9.620;2023-06-14T07:25:12;99445.41;;;20.64;40.57
61742;BME280;47650;49.848;9.620;2023-06-14T07:27:41;99300.53;;;19.17;41.72
61742;BME280;47650;49.848;9.620;2023-06-14T07:30:09;99475.00;;;21.09;40.89
61742;BME280;47650;49.848;9.620;2023-06-14T07:32:36;99480.13;;;21.17;39.89
61742;BME280;47650;49.848;9.620;2023-06-14T07:35:01;99479.72;;;21.20;40.51
61742;BME280;47650;49.848;9.620;2023-06-14T07:37:29;99432.06;;;20.82;40.52
61742;BME280;47650;49.848;9.620;2023-06-14T07:39:55;99469.66;;;20.64;41.37
61742;BME280;47650;49.848;9.620;2023-06-14T07:42:26;99430.63;;;21.12;40.58
61742;BME280;47650;49.848;9.620;2023-06-14T07:44:52;99492.00;;;21.41;40.90
61742;BME280;47650;49.848;9.620;2023-06-14T07:47:19;99461.13;;;21.37;40.27
61742;BME280;47650;49.848;9.620;2023-06-14T07:49:45;99410.53;;;21.33;39.19
61742;BME280;47650;49.848;9.620;2023-06-14T07:52:16;99449.94;;;21.84;38.65
61742;BME280;47650;49.848;9.620;2023-06-14T07:54:42;99454.59;;;21.95;38.46
61742;BME280;47650;49.848;9.620;2023-06-14T07:57:09;99416.38;;;21.30;39.00
61742;BME280;47650;49.848;9.620;2023-06-14T07:59:36;99475.16;;;21.96;38.39
61742;BME280;47650;49.848;9.620;2023-06-14T08:02:02;99479.34;;;22.36;38.73
61742;BME280;47650;49.848;9.620;2023-06-14T08:04:27;99462.25;;;21.98;37.85
61742;BME280;47650;49.848;9.620;2023-06-14T08:06:53;99457.78;;;21.92;38.22
61742;BME280;47650;49.848;9.620;2023-06-14T08:09:19;99417.50;;;22.28;37.98
61742;BME280;47650;49.848;9.620;2023-06-14T08:11:45;99312.72;;;21.26;38.48
61742;BME280;47650;49.848;9.620;2023-06-14T08:14:10;99121.63;;;20.12;37.49
61742;BME280;47650;49.848;9.620;2023-06-14T08:16:36;99422.66;;;21.74;38.21
61742;BME280;47650;49.848;9.620;2023-06-14T08:19:03;99487.03;;;22.51;37.35
61742;BME280;47650;49.848;9.620;2023-06-14T08:21:29;99475.50;;;23.04;36.32
61742;BME280;47650;49.848;9.620;2023-06-14T08:23:55;99457.66;;;23.03;37.60
61742;BME280;47650;49.848;9.620;2023-06-14T08:26:22;99474.00;;;23.39;37.29
61742;BME280;47650;49.848;9.620;2023-06-14T08:28:47;99466.22;;;23.42;36.50
61742;BME280;47650;49.848;9.620;2023-06-14T08:31:13;99466.34;;;23.47;35.13
61742;BME280;47650;49.848;9.620;2023-06-14T08:33:38;99474.25;;;22.77;34.85
61742;BME280;47650;49.848;9.620;2023-06-14T08:36:08;99467.06;;;23.31;35.18
61742;BME280;47650;49.848;9.620;2023-06-14T08:38:33;99469.78;;;23.55;34.59
61742;BME280;47650;49.848;9.620;2023-06-14T08:41:00;99465.09;;;23.62;35.54
61742;BME280;47650;49.848;9.620;2023-06-14T08:43:27;99464.09;;;23.44;34.67
61742;BME280;47650;49.848;9.620;2023-06-14T08:45:58;99454.13;;;23.80;35.57
61742;BME280;47650;49.848;9.620;2023-06-14T08:48:27;99475.25;;;23.90;34.52
61742;BME280;47650;49.848;9.620;2023-06-14T08:50:54;99468.94;;;24.25;33.28
61742;BME280;47650;49.848;9.620;2023-06-14T08:53:28;99456.72;;;24.23;33.50
61742;BME280;47650;49.848;9.620;2023-06-14T08:55:58;99466.09;;;24.55;32.33
61742;BME280;47650;49.848;9.620;2023-06-14T08:58:25;99476.00;;;23.43;34.35
61742;BME280;47650;49.848;9.620;2023-06-14T09:00:51;99465.44;;;23.65;32.86
61742;BME280;47650;49.848;9.620;2023-06-14T09:03:18;99471.44;;;24.27;33.56
61742;BME280;47650;49.848;9.620;2023-06-14T09:05:45;99443.56;;;24.02;33.12
61742;BME280;47650;49.848;9.620;2023-06-14T09:08:12;99450.34;;;24.17;31.77
61742;BME280;47650;49.848;9.620;2023-06-14T09:10:40;99470.06;;;24.65;32.00
61742;BME280;47650;49.848;9.620;2023-06-14T09:13:07;99474.59;;;24.76;31.57
61742;BME280;47650;49.848;9.620;2023-06-14T09:15:33;99474.38;;;25.23;31.89
61742;BME280;47650;49.848;9.620;2023-06-14T09:18:01;99476.16;;;25.18;30.06
61742;BME280;47650;49.848;9.620;2023-06-14T09:20:30;99463.22;;;26.71;29.14
61742;BME280;47650;49.848;9.620;2023-06-14T09:22:55;99407.84;;;26.82;28.07
61742;BME280;47650;49.848;9.620;2023-06-14T09:25:23;99456.25;;;27.77;27.01
61742;BME280;47650;49.848;9.620;2023-06-14T09:27:51;99420.22;;;29.01;25.12
61742;BME280;47650;49.848;9.620;2023-06-14T09:30:20;99459.97;;;30.26;23.26
61742;BME280;47650;49.848;9.620;2023-06-14T09:32:45;99406.63;;;31.81;21.67
61742;BME280;47650;49.848;9.620;2023-06-14T09:35:12;99454.56;;;32.75;20.98
61742;BME280;47650;49.848;9.620;2023-06-14T09:37:38;99450.25;;;33.07;20.49
61742;BME280;47650;49.848;9.620;2023-06-14T09:40:05;99446.38;;;35.08;18.34
61742;BME280;47650;49.848;9.620;2023-06-14T09:42:32;99446.31;;;33.93;19.47
61742;BME280;47650;49.848;9.620;2023-06-14T09:45:02;99455.16;;;33.62;19.84
61742;BME280;47650;49.848;9.620;2023-06-14T09:47:27;99433.03;;;34.28;18.46
61742;BME280;47650;49.848;9.620;2023-06-14T09:49:53;99425.91;;;36.17;16.31
61742;BME280;47650;49.848;9.620;2023-06-14T09:52:21;99437.88;;;36.87;16.37
61742;BME280;47650;49.848;9.620;2023-06-14T09:54:47;99426.41;;;39.32;14.53
61742;BME280;47650;49.848;9.620;2023-06-14T09:57:16;99427.41;;;39.15;14.39
61742;BME280;47650;49.848;9.620;2023-06-14T09:59:44;99444.53;;;37.30;15.46
61742;BME280;47650;49.848;9.620;2023-06-14T10:02:18;99422.94;;;40.42;13.11
61742;BME280;47650;49.848;9.620;2023-06-14T10:04:53;99416.00;;;39.87;13.19
61742;BME280;47650;49.848;9.620;2023-06-14T10:07:23;99402.66;;;39.10;12.83
61742;BME280;47650;49.848;9.620;2023-06-14T10:09:54;99432.38;;;38.37;14.51
61742;BME280;47650;49.848;9.620;2023-06-14T10:12:19;99425.94;;;39.63;13.43
61742;BME280;47650;49.848;9.620;2023-06-14T10:14:49;99410.38;;;41.02;12.61
61742;BME280;47650;49.848;9.620;2023-06-14T10:17:27;99406.78;;;37.90;14.27
61742;BME280;47650;49.848;9.620;2023-06-14T10:22:51;99440.00;;;33.13;18.28
61742;BME280;47650;49.848;9.620;2023-06-14T10:25:29;99429.53;;;36.43;15.97
61742;BME280;47650;49.848;9.620;2023-06-14T10:28:14;99429.69;;;36.47;15.31
61742;BME280;47650;49.848;9.620;2023-06-14T10:31:04;99436.78;;;34.69;17.41
61742;BME280;47650;49.848;9.620;2023-06-14T10:33:35;99435.94;;;33.29;18.10
61742;BME280;47650;49.848;9.620;2023-06-14T10:36:24;99449.84;;;32.62;18.90
61742;BME280;47650;49.848;9.620;2023-06-14T10:39:15;99434.06;;;32.05;19.03
61742;BME280;47650;49.848;9.620;2023-06-14T10:41:53;99386.28;;;31.63;19.61
61742;BME280;47650;49.848;9.620;2023-06-14T10:46:52;99420.91;;;35.56;16.75
61742;BME280;47650;49.848;9.620;2023-06-14T10:49:19;99421.47;;;35.13;16.80
61742;BME280;47650;49.848;9.620;2023-06-14T10:51:49;99411.03;;;40.17;11.94
61742;BME280;47650;49.848;9.620;2023-06-14T10:54:17;99415.94;;;39.04;13.45
61742;BME280;47650;49.848;9.620;2023-06-14T10:56:52;99416.44;;;37.75;14.59
61742;BME280;47650;49.848;9.620;2023-06-14T10:59:19;99432.69;;;35.70;15.89
61742;BME280;47650;49.848;9.620;2023-06-14T11:04:51;99399.28;;;34.22;17.34
61742;BME280;47650;49.848;9.620;2023-06-14T11:10:26;99420.09;;;37.88;15.09
61742;BME280;47650;49.848;9.620;2023-06-14T11:12:55;99414.25;;;40.19;13.27
61742;BME280;47650;49.848;9.620;2023-06-14T11:15:28;99394.53;;;42.69;11.14
61742;BME280;47650;49.848;9.620;2023-06-14T11:17:53;99400.72;;;42.78;9.86
61742;BME280;47650;49.848;9.620;2023-06-14T11:20:20;99398.22;;;40.94;11.81
61742;BME280;47650;49.848;9.620;2023-06-14T11:22:46;99398.59;;;39.41;12.28
61742;BME280;47650;49.848;9.620;2023-06-14T11:25:12;99380.81;;;37.17;12.83
61742;BME280;47650;49.848;9.620;2023-06-14T11:27:37;99410.41;;;36.73;14.80
61742;BME280;47650;49.848;9.620;2023-06-14T11:30:06;99413.78;;;36.44;15.04
61742;BME280;47650;49.848;9.620;2023-06-14T11:32:32;99414.00;;;39.17;12.82
61742;BME280;47650;49.848;9.620;2023-06-14T11:34:57;99389.28;;;41.45;11.34
61742;BME280;47650;49.848;9.620;2023-06-14T11:37:25;99390.75;;;42.57;11.15
61742;BME280;47650;49.848;9.620;2023-06-14T11:39:51;99389.53;;;45.08;9.42
61742;BME280;47650;49.848;9.620;2023-06-14T11:42:17;99379.44;;;45.37;9.07
61742;BME280;47650;49.848;9.620;2023-06-14T11:44:46;99381.44;;;44.99;8.18
61742;BME280;47650;49.848;9.620;2023-06-14T11:47:12;99376.75;;;46.03;7.58
61742;BME280;47650;49.848;9.620;2023-06-14T11:49:39;99347.13;;;47.22;7.47
61742;BME280;47650;49.848;9.620;2023-06-14T11:52:05;99370.75;;;49.03;6.49
61742;BME280;47650;49.848;9.620;2023-06-14T11:54:31;99386.81;;;49.06;6.52
61742;BME280;47650;49.848;9.620;2023-06-14T11:56:58;99349.72;;;48.52;7.05
61742;BME280;47650;49.848;9.620;2023-06-14T11:59:24;99373.53;;;45.04;8.39
61742;BME280;47650;49.848;9.620;2023-06-14T12:01:50;99374.81;;;47.56;7.22
61742;BME280;47650;49.848;9.620;2023-06-14T12:04:29;99330.72;;;47.32;7.89
61742;BME280;47650;49.848;9.620;2023-06-14T12:06:54;99379.22;;;47.79;7.01
61742;BME280;47650;49.848;9.620;2023-06-14T12:09:20;99380.44;;;47.60;6.80
61742;BME280;47650;49.848;9.620;2023-06-14T12:11:48;99390.44;;;44.51;8.26
61742;BME280;47650;49.848;9.620;2023-06-14T12:14:14;99378.53;;;43.28;8.42
61742;BME280;47650;49.848;9.620;2023-06-14T12:16:41;99369.91;;;43.13;9.04
61742;BME280;47650;49.848;9.620;2023-06-14T12:19:15;99391.78;;;41.82;10.50
61742;BME280;47650;49.848;9.620;2023-06-14T12:21:42;99390.53;;;43.51;9.77
61742;BME280;47650;49.848;9.620;2023-06-14T12:24:08;99373.69;;;44.51;8.82
61742;BME280;47650;49.848;9.620;2023-06-14T12:26:37;99362.28;;;45.94;8.11
61742;BME280;47650;49.848;9.620;2023-06-14T12:29:05;99379.84;;;44.34;9.13
61742;BME280;47650;49.848;9.620;2023-06-14T12:31:30;99385.22;;;41.42;10.73
61742;BME280;47650;49.848;9.620;2023-06-14T12:33:56;99388.00;;;40.17;10.99
61742;BME280;47650;49.848;9.620;2023-06-14T12:36:21;99396.72;;;38.99;12.19
61742;BME280;47650;49.848;9.620;2023-06-14T12:38:46;99402.97;;;37.94;13.79
61742;BME280;47650;49.848;9.620;2023-06-14T12:41:12;99402.34;;;36.10;15.13
61742;BME280;47650;49.848;9.620;2023-06-14T12:43:39;99394.53;;;36.12;14.33
61742;BME280;47650;49.848;9.620;2023-06-14T12:46:05;99392.69;;;37.18;14.63
61742;BME280;47650;49.848;9.620;2023-06-14T12:48:30;99375.91;;;38.60;13.30
61742;BME280;47650;49.848;9.620;2023-06-14T12:50:56;99350.91;;;39.72;11.76
61742;BME280;47650;49.848;9.620;2023-06-14T12:53:24;99392.25;;;39.40;12.13
61742;BME280;47650;49.848;9.620;2023-06-14T12:55:49;99364.19;;;39.08;12.47
61742;BME280;47650;49.848;9.620;2023-06-14T12:58:14;99402.31;;;37.68;12.96
61742;BME280;47650;49.848;9.620;2023-06-14T13:00:42;99400.91;;;38.21;13.25
61742;BME280;47650;49.848;9.620;2023-06-14T13:03:10;99392.03;;;40.44;12.59
61742;BME280;47650;49.848;9.620;2023-06-14T13:05:36;99384.59;;;43.10;9.18
61742;BME280;47650;49.848;9.620;2023-06-14T13:08:07;99379.78;;;42.88;9.66
61742;BME280;47650;49.848;9.620;2023-06-14T13:10:33;99189.19;;;43.26;9.71
61742;BME280;47650;49.848;9.620;2023-06-14T13:12:59;99379.28;;;45.22;8.67
61742;BME280;47650;49.848;9.620;2023-06-14T13:15:25;99370.66;;;44.63;8.39
61742;BME280;47650;49.848;9.620;2023-06-14T13:17:51;99357.41;;;45.84;8.08